createdAt,value
2018-07-02T00:00:05.727Z,52.86
2018-07-02T00:01:05.705Z,52.57
2018-07-02T00:02:05.705Z,52.76
2018-07-02T00:03:05.676Z,53.03
2018-07-02T00:04:05.664Z,53.50
2018-07-02T00:05:05.652Z,52.57
2018-07-02T00:06:05.634Z,52.86
2018-07-02T00:07:05.620Z,53.05
2018-07-02T00:08:05.613Z,53.31
2018-07-02T00:09:05.591Z,53.41
2018-07-02T00:10:05.577Z,53.31
2018-07-02T00:11:05.562Z,53.60
2018-07-02T00:12:05.558Z,53.70
2018-07-02T00:13:05.548Z,53.70
2018-07-02T00:14:05.520Z,53.79
2018-07-02T00:15:05.505Z,53.79
2018-07-02T00:16:05.489Z,53.70
2018-07-02T00:17:05.478Z,53.89
2018-07-02T00:18:05.460Z,53.70
2018-07-02T00:19:05.459Z,53.60
2018-07-02T00:20:05.439Z,54.08
2018-07-02T00:21:05.441Z,54.08
2018-07-02T00:22:05.406Z,53.99
2018-07-02T00:23:05.396Z,53.70
2018-07-02T00:24:05.374Z,53.99
2018-07-02T00:25:05.358Z,54.27
2018-07-02T00:26:05.345Z,54.27
2018-07-02T00:27:05.337Z,54.56
2018-07-02T00:28:05.316Z,54.37
2018-07-02T00:29:05.302Z,54.17
2018-07-02T00:30:05.286Z,53.79
2018-07-02T00:31:05.272Z,54.27
2018-07-02T00:32:05.263Z,54.17
2018-07-02T00:33:05.243Z,54.08
2018-07-02T00:34:05.228Z,54.17
2018-07-02T00:35:05.213Z,54.27
2018-07-02T00:36:05.197Z,54.63
2018-07-02T00:37:05.183Z,55.49
2018-07-02T00:38:05.170Z,55.33
2018-07-02T00:39:05.158Z,56.19
2018-07-02T00:40:05.139Z,55.33
2018-07-02T00:41:05.125Z,55.13
2018-07-02T00:42:05.110Z,55.90
2018-07-02T00:43:05.097Z,55.80
2018-07-02T00:44:05.080Z,55.52
2018-07-02T00:45:05.066Z,55.42
2018-07-02T00:46:05.053Z,54.46
2018-07-02T00:47:05.040Z,54.37
2018-07-02T00:48:05.023Z,55.13
2018-07-02T00:49:05.009Z,54.17
2018-07-02T00:50:04.993Z,53.99
2018-07-02T00:51:04.979Z,54.63
2018-07-02T00:52:04.971Z,54.15
2018-07-02T00:53:04.948Z,54.05
2018-07-02T00:54:04.936Z,54.63
2018-07-02T00:55:04.922Z,54.91
2018-07-02T00:56:04.906Z,56.26
2018-07-02T00:57:04.894Z,55.58
2018-07-02T00:58:04.883Z,55.58
2018-07-02T00:59:04.869Z,54.63
2018-07-02T01:00:04.854Z,55.01
2018-07-02T01:01:04.832Z,54.63
2018-07-02T01:02:04.818Z,54.63
2018-07-02T01:03:04.804Z,55.01
2018-07-02T01:04:04.787Z,55.11
2018-07-02T01:05:04.778Z,54.24
2018-07-02T01:06:04.757Z,54.44
2018-07-02T01:07:04.748Z,54.72
2018-07-02T01:08:04.731Z,54.15
2018-07-02T01:09:04.713Z,55.01
2018-07-02T01:10:04.703Z,55.40
2018-07-02T01:11:04.689Z,54.82
2018-07-02T01:12:04.677Z,54.72
2018-07-02T01:13:04.655Z,55.01
2018-07-02T01:14:04.639Z,55.40
2018-07-02T01:15:04.627Z,55.49
2018-07-02T01:16:04.610Z,54.82
2018-07-02T01:17:04.604Z,54.91
2018-07-02T01:18:04.581Z,55.01
2018-07-02T01:19:04.571Z,55.11
2018-07-02T01:20:04.556Z,55.11
2018-07-02T01:21:04.537Z,54.82
2018-07-02T01:22:04.522Z,55.30
2018-07-02T01:23:04.506Z,55.40
2018-07-02T01:24:04.492Z,55.01
2018-07-02T01:25:04.480Z,54.34
2018-07-02T01:26:04.465Z,55.11
2018-07-02T01:27:04.450Z,54.91
2018-07-02T01:28:04.430Z,55.01
2018-07-02T01:29:04.419Z,55.40
2018-07-02T01:30:04.400Z,55.21
2018-07-02T01:31:04.386Z,55.40
2018-07-02T01:32:04.371Z,55.30
2018-07-02T01:33:04.356Z,55.30
2018-07-02T01:34:04.345Z,55.01
2018-07-02T01:35:04.328Z,55.78
2018-07-02T01:36:04.310Z,56.54
2018-07-02T01:37:04.366Z,56.35
2018-07-02T01:38:04.283Z,56.26
2018-07-02T01:39:04.268Z,56.45
2018-07-02T01:40:04.259Z,55.78
2018-07-02T01:41:04.238Z,55.87
2018-07-02T01:42:04.228Z,55.21
2018-07-02T01:43:04.215Z,56.83
2018-07-02T01:44:04.189Z,56.16
2018-07-02T01:45:04.176Z,55.40
2018-07-02T01:46:04.169Z,55.01
2018-07-02T01:47:04.147Z,55.21
2018-07-02T01:48:04.149Z,55.78
2018-07-02T01:49:04.116Z,56.07
2018-07-02T01:50:04.103Z,55.40
2018-07-02T01:51:04.089Z,57.09
2018-07-02T01:52:04.073Z,58.34
2018-07-02T01:53:04.056Z,57.09
2018-07-02T01:54:04.042Z,57.67
2018-07-02T01:55:04.027Z,56.61
2018-07-02T01:56:04.010Z,57.28
2018-07-02T01:57:04.004Z,56.99
2018-07-02T01:58:03.985Z,56.42
2018-07-02T01:59:03.987Z,57.28
2018-07-02T02:00:03.952Z,57.28
2018-07-02T02:01:03.944Z,57.86
2018-07-02T02:02:03.934Z,57.19
2018-07-02T02:03:03.907Z,58.53
2018-07-02T02:04:03.892Z,57.79
2018-07-02T02:05:03.877Z,57.86
2018-07-02T02:06:03.862Z,57.98
2018-07-02T02:07:03.852Z,57.48
2018-07-02T02:08:03.833Z,57.21
2018-07-02T02:09:03.826Z,58.34
2018-07-02T02:10:03.816Z,57.79
2018-07-02T02:11:03.789Z,57.70
2018-07-02T02:12:03.781Z,57.09
2018-07-02T02:13:03.765Z,59.01
2018-07-02T02:14:03.743Z,58.81
2018-07-02T02:15:03.732Z,57.95
2018-07-02T02:16:03.712Z,58.53
2018-07-02T02:17:03.698Z,57.86
2018-07-02T02:18:03.697Z,57.95
2018-07-02T02:19:03.670Z,58.24
2018-07-02T02:20:03.653Z,59.11
2018-07-02T02:21:03.642Z,58.34
2018-07-02T02:22:03.625Z,59.39
2018-07-02T02:23:03.608Z,59.11
2018-07-02T02:24:03.593Z,59.01
2018-07-02T02:25:03.587Z,59.01
2018-07-02T02:26:03.573Z,58.81
2018-07-02T02:27:03.557Z,58.15
2018-07-02T02:28:03.533Z,58.81
2018-07-02T02:29:03.520Z,59.68
2018-07-02T02:30:03.504Z,59.87
2018-07-02T02:31:03.496Z,58.62
2018-07-02T02:32:03.473Z,59.11
2018-07-02T02:33:03.457Z,58.44
2018-07-02T02:34:03.450Z,58.50
2018-07-02T02:35:03.438Z,58.50
2018-07-02T02:36:03.412Z,60.32
2018-07-02T02:37:03.398Z,59.65
2018-07-02T02:38:03.398Z,60.22
2018-07-02T02:39:03.372Z,59.17
2018-07-02T02:40:03.360Z,60.03
2018-07-02T02:41:03.343Z,60.80
2018-07-02T02:42:03.324Z,60.03
2018-07-02T02:43:03.310Z,60.89
2018-07-02T02:44:03.293Z,59.84
2018-07-02T02:45:03.277Z,60.89
2018-07-02T02:46:03.266Z,59.84
2018-07-02T02:47:03.249Z,60.03
2018-07-02T02:48:03.232Z,61.47
2018-07-02T02:49:03.226Z,61.37
2018-07-02T02:50:03.201Z,61.28
2018-07-02T02:51:03.188Z,60.51
2018-07-02T02:52:03.169Z,60.70
2018-07-02T02:53:03.154Z,61.85
2018-07-02T02:54:03.141Z,61.85
2018-07-02T02:55:03.127Z,60.99
2018-07-02T02:56:03.116Z,60.99
2018-07-02T02:57:03.097Z,61.18
2018-07-02T02:58:03.087Z,60.41
2018-07-02T02:59:03.065Z,60.41
2018-07-02T03:00:03.052Z,60.32
2018-07-02T03:01:03.034Z,61.85
2018-07-02T03:02:03.019Z,62.52
2018-07-02T03:03:03.005Z,60.32
2018-07-02T03:04:02.988Z,60.19
2018-07-02T03:05:02.974Z,62.11
2018-07-02T03:06:03.057Z,60.96
2018-07-02T03:07:02.955Z,61.34
2018-07-02T03:08:02.928Z,60.86
2018-07-02T03:09:02.911Z,61.54
2018-07-02T03:10:02.900Z,62.40
2018-07-02T03:11:02.880Z,62.01
2018-07-02T03:12:02.868Z,62.68
2018-07-02T03:13:02.857Z,61.25
2018-07-02T03:14:02.835Z,61.15
2018-07-02T03:15:02.822Z,61.44
2018-07-02T03:16:02.804Z,61.34
2018-07-02T03:17:02.788Z,61.44
2018-07-02T03:18:02.777Z,62.11
2018-07-02T03:19:02.757Z,63.35
2018-07-02T03:20:02.743Z,61.63
2018-07-02T03:21:02.728Z,63.93
2018-07-02T03:22:02.714Z,63.93
2018-07-02T03:23:02.697Z,64.12
2018-07-02T03:24:02.688Z,64.50
2018-07-02T03:25:02.666Z,62.59
2018-07-02T03:26:02.651Z,63.45
2018-07-02T03:27:02.647Z,63.83
2018-07-02T03:28:02.621Z,63.73
2018-07-02T03:29:02.607Z,62.49
2018-07-02T03:30:02.601Z,61.72
2018-07-02T03:31:02.640Z,62.30
2018-07-02T03:32:02.557Z,63.64
2018-07-02T03:33:02.543Z,63.26
2018-07-02T03:34:02.527Z,62.49
2018-07-02T03:35:02.528Z,62.87
2018-07-02T03:36:02.498Z,63.83
2018-07-02T03:37:02.480Z,63.39
2018-07-02T03:38:02.466Z,63.29
2018-07-02T03:39:02.449Z,63.29
2018-07-02T03:40:02.435Z,62.40
2018-07-02T03:41:02.420Z,62.43
2018-07-02T03:42:02.404Z,62.71
2018-07-02T03:43:02.389Z,63.29
2018-07-02T03:44:02.374Z,62.43
2018-07-02T03:45:02.366Z,63.86
2018-07-02T03:46:02.358Z,62.43
2018-07-02T03:47:02.328Z,62.33
2018-07-02T03:48:02.312Z,62.43
2018-07-02T03:49:02.296Z,61.37
2018-07-02T03:50:02.287Z,62.52
2018-07-02T03:51:02.277Z,62.52
2018-07-02T03:52:02.309Z,61.37
2018-07-02T03:53:02.235Z,62.43
2018-07-02T03:54:02.219Z,62.43
2018-07-02T03:55:02.205Z,61.57
2018-07-02T03:56:02.187Z,61.85
2018-07-02T03:57:02.173Z,61.28
2018-07-02T03:58:02.156Z,61.94
2018-07-02T03:59:02.153Z,61.25
2018-07-02T04:00:02.131Z,62.49
2018-07-02T04:01:02.113Z,62.40
2018-07-02T04:02:02.096Z,62.49
2018-07-02T04:03:02.081Z,63.64
2018-07-02T04:04:02.068Z,63.06
2018-07-02T04:05:02.051Z,63.45
2018-07-02T04:06:02.042Z,62.97
2018-07-02T04:07:02.019Z,63.10
2018-07-02T04:08:02.035Z,62.40
2018-07-02T04:09:01.988Z,62.14
2018-07-02T04:10:01.973Z,61.94
2018-07-02T04:11:01.959Z,62.33
2018-07-02T04:12:02.001Z,62.62
2018-07-02T04:13:01.954Z,61.37
2018-07-02T04:14:01.911Z,61.85
2018-07-02T04:15:01.897Z,61.94
2018-07-02T04:16:01.886Z,61.76
2018-07-02T04:17:01.868Z,63.67
2018-07-02T04:18:01.851Z,62.11
2018-07-02T04:19:01.834Z,62.30
2018-07-02T04:20:01.822Z,62.30
2018-07-02T04:21:01.803Z,62.49
2018-07-02T04:22:01.797Z,62.49
2018-07-02T04:23:01.779Z,62.87
2018-07-02T04:24:01.755Z,63.64
2018-07-02T04:25:01.750Z,62.30
2018-07-02T04:26:01.742Z,62.49
2018-07-02T04:27:01.712Z,63.06
2018-07-02T04:28:01.696Z,63.26
2018-07-02T04:29:01.679Z,64.22
2018-07-02T04:30:01.664Z,63.73
2018-07-02T04:31:01.660Z,64.12
2018-07-02T04:32:01.732Z,63.64
2018-07-02T04:33:01.625Z,63.54
2018-07-02T04:34:01.601Z,63.06
2018-07-02T04:35:01.588Z,63.16
2018-07-02T04:36:01.570Z,62.52
2018-07-02T04:37:01.571Z,62.30
2018-07-02T04:38:01.540Z,62.40
2018-07-02T04:39:01.523Z,63.16
2018-07-02T04:40:01.508Z,62.49
2018-07-02T04:41:01.492Z,62.77
2018-07-02T04:42:01.478Z,62.97
2018-07-02T04:43:01.464Z,63.39
2018-07-02T04:44:01.446Z,62.33
2018-07-02T04:45:01.430Z,62.14
2018-07-02T04:46:01.415Z,63.67
2018-07-02T04:47:01.398Z,63.67
2018-07-02T04:48:01.384Z,63.86
2018-07-02T04:49:01.371Z,62.62
2018-07-02T04:50:01.352Z,61.47
2018-07-02T04:51:01.434Z,61.94
2018-07-02T04:52:01.320Z,62.23
2018-07-02T04:53:01.309Z,61.66
2018-07-02T04:54:01.300Z,62.65
2018-07-02T04:55:01.284Z,61.60
2018-07-02T04:56:01.271Z,61.28
2018-07-02T04:57:01.249Z,62.04
2018-07-02T04:58:01.243Z,61.66
2018-07-02T04:59:01.218Z,61.76
2018-07-02T05:00:01.197Z,62.04
2018-07-02T05:01:01.194Z,61.76
2018-07-02T05:02:01.178Z,61.79
2018-07-02T05:03:01.152Z,61.11
2018-07-02T05:04:01.135Z,62.36
2018-07-02T05:05:01.121Z,61.69
2018-07-02T05:06:01.106Z,61.11
2018-07-02T05:07:01.093Z,61.60
2018-07-02T05:08:01.074Z,61.02
2018-07-02T05:09:01.059Z,60.73
2018-07-02T05:10:01.050Z,60.16
2018-07-02T05:11:01.029Z,60.64
2018-07-02T05:12:01.013Z,60.44
2018-07-02T05:13:01.001Z,60.06
2018-07-02T05:14:00.982Z,59.97
2018-07-02T05:15:00.975Z,60.16
2018-07-02T05:16:00.953Z,60.25
2018-07-02T05:17:00.982Z,60.25
2018-07-02T05:18:00.921Z,60.54
2018-07-02T05:19:00.907Z,60.19
2018-07-02T05:20:00.899Z,59.58
2018-07-02T05:21:00.873Z,59.42
2018-07-02T05:22:00.861Z,59.80
2018-07-02T05:23:00.844Z,59.52
2018-07-02T05:24:00.835Z,59.61
2018-07-02T05:25:00.824Z,58.65
2018-07-02T05:26:00.797Z,58.75
2018-07-02T05:27:00.783Z,58.84
2018-07-02T05:28:00.765Z,58.37
2018-07-02T05:29:00.751Z,58.01
2018-07-02T05:30:00.736Z,57.82
2018-07-02T05:31:00.721Z,58.39
2018-07-02T05:32:00.705Z,57.53
2018-07-02T05:33:00.689Z,57.63
2018-07-02T05:34:00.775Z,57.06
2018-07-02T05:35:00.659Z,56.86
2018-07-02T05:36:00.643Z,56.76
2018-07-02T05:37:00.629Z,57.15
2018-07-02T05:38:00.614Z,56.57
2018-07-02T05:39:00.598Z,56.41
2018-07-02T05:40:00.583Z,56.51
2018-07-02T05:41:00.566Z,56.22
2018-07-02T05:42:00.553Z,55.64
2018-07-02T05:43:00.538Z,55.47
2018-07-02T05:44:00.529Z,53.87
2018-07-02T05:45:00.513Z,50.04
2018-07-02T05:46:00.493Z,47.10
2018-07-02T05:47:00.486Z,44.76
2018-07-02T05:48:00.460Z,42.93
2018-07-02T05:49:00.454Z,42.00
2018-07-02T05:50:00.441Z,40.01
2018-07-02T05:51:00.417Z,40.30
2018-07-02T05:52:00.403Z,39.57
2018-07-02T05:53:00.402Z,38.58
2018-07-02T05:54:00.388Z,38.48
2018-07-02T05:55:00.367Z,37.65
2018-07-02T05:56:00.354Z,37.28
2018-07-02T05:57:00.341Z,36.58
2018-07-02T05:58:00.330Z,36.51
2018-07-02T05:59:00.320Z,37.34
2018-07-02T06:00:00.310Z,38.02
2018-07-02T06:01:00.310Z,37.92
2018-07-02T06:02:00.289Z,37.44
2018-07-02T06:03:00.278Z,36.58
2018-07-02T06:04:00.273Z,36.02
2018-07-02T06:05:00.306Z,34.89
2018-07-02T06:06:00.303Z,34.43
2018-07-02T06:07:00.242Z,33.81
2018-07-02T06:08:00.311Z,35.46
2018-07-02T06:09:00.232Z,34.91
2018-07-02T06:10:00.224Z,33.88
2018-07-02T06:11:00.212Z,33.64
2018-07-02T06:12:00.203Z,34.70
2018-07-02T06:13:00.209Z,33.67
2018-07-02T06:14:00.200Z,33.11
2018-07-02T06:15:00.194Z,32.52
2018-07-02T06:16:00.179Z,31.87
2018-07-02T06:17:00.171Z,32.28
2018-07-02T06:18:00.168Z,30.94
2018-07-02T06:19:00.162Z,31.85
2018-07-02T06:20:00.155Z,33.34
2018-07-02T06:21:00.151Z,33.56
2018-07-02T06:22:00.168Z,33.54
2018-07-02T06:23:00.149Z,34.04
2018-07-02T06:24:00.138Z,33.78
2018-07-02T06:25:00.133Z,31.95
2018-07-02T06:26:00.139Z,32.04
2018-07-02T06:27:00.142Z,33.26
2018-07-02T06:28:00.125Z,32.73
2018-07-02T06:29:00.117Z,31.79
2018-07-02T06:30:00.118Z,31.85
2018-07-02T06:31:00.117Z,31.34
2018-07-02T06:32:00.114Z,33.54
2018-07-02T06:33:00.102Z,33.56
2018-07-02T06:34:00.110Z,33.11
2018-07-02T06:35:00.102Z,32.26
2018-07-02T06:36:00.093Z,31.60
2018-07-02T06:37:00.239Z,30.82
2018-07-02T06:38:00.091Z,30.52
2018-07-02T06:39:00.085Z,30.91
2018-07-02T06:40:00.084Z,30.24
2018-07-02T06:41:00.089Z,31.11
2018-07-02T06:42:00.102Z,30.26
2018-07-02T06:43:00.094Z,29.99
2018-07-02T06:44:00.075Z,29.24
2018-07-02T06:45:00.080Z,28.58
2018-07-02T06:46:00.080Z,26.86
2018-07-02T06:47:00.070Z,26.07
2018-07-02T06:48:00.073Z,25.88
2018-07-02T06:49:00.070Z,25.99
2018-07-02T06:50:00.071Z,24.63
2018-07-02T06:51:00.068Z,24.52
2018-07-02T06:52:00.077Z,24.91
2018-07-02T06:53:00.121Z,25.84
2018-07-02T06:54:00.067Z,26.62
2018-07-02T06:55:00.072Z,26.25
2018-07-02T06:56:00.067Z,26.43
2018-07-02T06:57:00.075Z,25.29
2018-07-02T06:58:00.071Z,25.86
2018-07-02T06:59:00.071Z,25.29
2018-07-02T07:00:00.072Z,26.04
2018-07-02T07:01:00.096Z,26.50
2018-07-02T07:02:00.072Z,27.45
2018-07-02T07:03:00.123Z,28.04
2018-07-02T07:04:00.073Z,28.70
2018-07-02T07:05:00.078Z,29.47
2018-07-02T07:06:00.077Z,29.58
2018-07-02T07:07:00.078Z,28.90
2018-07-02T07:08:00.080Z,28.23
2018-07-02T07:09:00.083Z,28.28
2018-07-02T07:10:00.083Z,30.19
2018-07-02T07:11:00.085Z,30.41
2018-07-02T07:12:00.094Z,30.32
2018-07-02T07:13:00.095Z,29.29
2018-07-02T07:14:00.088Z,29.19
2018-07-02T07:15:00.099Z,29.22
2018-07-02T07:16:00.091Z,27.22
2018-07-02T07:17:00.101Z,25.37
2018-07-02T07:18:00.093Z,24.68
2018-07-02T07:19:00.095Z,27.06
2018-07-02T07:20:00.095Z,28.04
2018-07-02T07:21:00.096Z,28.40
2018-07-02T07:22:00.098Z,29.44
2018-07-02T07:23:00.098Z,30.57
2018-07-02T07:24:00.100Z,31.45
2018-07-02T07:25:00.102Z,31.16
2018-07-02T07:26:00.113Z,30.87
2018-07-02T07:27:00.113Z,31.63
2018-07-02T07:28:00.110Z,31.81
2018-07-02T07:29:00.106Z,32.68
2018-07-02T07:30:00.129Z,32.78
2018-07-02T07:31:00.120Z,32.29
2018-07-02T07:32:00.116Z,31.63
2018-07-02T07:33:00.113Z,32.04
2018-07-02T07:34:00.116Z,31.35
2018-07-02T07:35:00.117Z,31.26
2018-07-02T07:36:00.136Z,30.30
2018-07-02T07:37:00.122Z,30.38
2018-07-02T07:38:00.122Z,31.07
2018-07-02T07:39:00.125Z,31.63
2018-07-02T07:40:00.133Z,32.12
2018-07-02T07:41:00.130Z,31.05
2018-07-02T07:42:00.134Z,31.42
2018-07-02T07:43:00.153Z,31.78
2018-07-02T07:44:00.140Z,33.42
2018-07-02T07:45:00.140Z,32.73
2018-07-02T07:46:00.142Z,32.91
2018-07-02T07:47:00.142Z,33.78
2018-07-02T07:48:00.146Z,34.19
2018-07-02T07:49:00.138Z,34.27
2018-07-02T07:50:00.147Z,33.89
2018-07-02T07:51:00.148Z,33.89
2018-07-02T07:52:00.135Z,33.89
2018-07-02T07:53:00.152Z,33.81
2018-07-02T07:54:00.130Z,33.91
2018-07-02T07:55:00.142Z,33.81
2018-07-02T07:56:00.136Z,33.52
2018-07-02T07:57:00.121Z,32.57
2018-07-02T07:58:00.120Z,31.50
2018-07-02T07:59:00.113Z,31.41
2018-07-02T08:00:00.117Z,31.04
2018-07-02T08:01:00.109Z,31.50
2018-07-02T08:02:00.100Z,31.97
2018-07-02T08:03:00.098Z,32.46
2018-07-02T08:04:00.094Z,33.31
2018-07-02T08:05:00.086Z,32.65
2018-07-02T08:06:00.081Z,31.97
2018-07-02T08:07:00.085Z,32.15
2018-07-02T08:08:00.072Z,33.70
2018-07-02T08:09:00.067Z,33.60
2018-07-02T08:10:00.067Z,33.41
2018-07-02T08:11:00.059Z,33.60
2018-07-02T08:12:00.054Z,33.70
2018-07-02T08:13:00.048Z,33.23
2018-07-02T08:14:00.060Z,32.56
2018-07-02T08:15:00.067Z,32.64
2018-07-02T08:16:00.033Z,33.02
2018-07-02T08:17:00.029Z,33.02
2018-07-02T08:18:00.031Z,32.54
2018-07-02T08:19:00.055Z,32.36
2018-07-02T08:20:00.019Z,31.87
2018-07-02T08:21:00.007Z,31.60
2018-07-02T08:22:00.010Z,31.10
2018-07-02T08:22:59.993Z,31.01
2018-07-02T08:24:00.009Z,31.49
2018-07-02T08:24:59.980Z,31.50
2018-07-02T08:25:59.981Z,31.29
2018-07-02T08:26:59.969Z,31.47
2018-07-02T08:27:59.973Z,31.67
2018-07-02T08:28:59.960Z,32.14
2018-07-02T08:29:59.956Z,32.52
2018-07-02T08:30:59.955Z,32.73
2018-07-02T08:31:59.942Z,32.44
2018-07-02T08:33:00.013Z,31.86
2018-07-02T08:33:59.930Z,32.06
2018-07-02T08:34:59.921Z,32.15
2018-07-02T08:35:59.910Z,32.34
2018-07-02T08:36:59.904Z,32.17
2018-07-02T08:37:59.897Z,31.99
2018-07-02T08:40:14.438Z,31.21
2018-07-02T08:42:24.333Z,30.63
2018-07-02T08:43:20.492Z,30.24
2018-07-02T08:51:06.638Z,31.01
2018-07-02T08:52:06.625Z,31.39
2018-07-02T08:53:06.611Z,31.10
2018-07-02T08:54:06.602Z,30.63
2018-07-02T08:55:06.603Z,30.69
2018-07-02T08:56:06.597Z,31.28
2018-07-02T08:57:06.584Z,31.09
2018-07-02T08:58:06.571Z,30.89
2018-07-02T08:59:06.560Z,31.10
2018-07-02T09:00:06.550Z,30.92
2018-07-02T09:01:06.552Z,30.54
2018-07-02T09:02:06.533Z,30.63
2018-07-02T09:03:06.524Z,30.84
2018-07-02T09:04:06.537Z,30.74
2018-07-02T09:05:06.511Z,30.00
2018-07-02T09:06:06.502Z,29.12
2018-07-02T09:07:06.490Z,29.01
2018-07-02T09:08:06.480Z,29.11
2018-07-02T09:09:06.484Z,28.33
2018-07-02T09:10:06.467Z,28.54
2018-07-02T09:11:06.473Z,28.53
2018-07-02T09:12:06.451Z,28.91
2018-07-02T09:13:06.451Z,28.36
2018-07-02T09:14:06.434Z,28.38
2018-07-02T09:15:06.428Z,27.78
2018-07-02T09:16:06.421Z,28.45
2018-07-02T09:17:06.423Z,28.65
2018-07-02T09:18:06.423Z,29.33
2018-07-02T09:19:06.405Z,29.24
2018-07-02T09:20:06.399Z,29.52
2018-07-02T09:21:06.394Z,29.14
2018-07-02T09:22:06.391Z,29.43
2018-07-02T09:23:06.386Z,28.91
2018-07-02T09:24:06.389Z,29.41
2018-07-02T09:25:06.381Z,29.71
2018-07-02T09:26:06.384Z,29.21
2018-07-02T09:27:06.376Z,29.41
2018-07-02T09:28:06.385Z,29.04
2018-07-02T09:29:06.371Z,29.33
2018-07-02T09:30:06.374Z,28.85
2018-07-02T09:31:06.367Z,27.98
2018-07-02T09:32:06.374Z,27.42
2018-07-02T09:33:06.363Z,26.92
2018-07-02T09:34:06.361Z,27.51
2018-07-02T09:35:06.376Z,26.84
2018-07-02T09:36:06.358Z,26.55
2018-07-02T09:37:06.357Z,26.36
2018-07-02T09:38:06.371Z,27.03
2018-07-02T09:39:06.359Z,27.61
2018-07-02T09:40:06.363Z,26.84
2018-07-02T09:41:06.351Z,27.12
2018-07-02T09:42:06.349Z,27.90
2018-07-02T09:43:06.351Z,27.32
2018-07-02T09:44:06.349Z,26.73
2018-07-02T09:45:06.348Z,26.73
2018-07-02T09:46:06.349Z,26.54
2018-07-02T09:47:06.350Z,27.12
2018-07-02T09:48:06.347Z,27.04
2018-07-02T09:49:06.345Z,27.23
2018-07-02T09:50:06.346Z,27.14
2018-07-02T09:51:06.346Z,26.83
2018-07-02T09:52:06.351Z,26.93
2018-07-02T09:53:06.394Z,27.68
2018-07-02T09:54:06.351Z,28.17
2018-07-02T09:55:06.341Z,28.29
2018-07-02T09:56:06.339Z,27.14
2018-07-02T09:57:06.341Z,25.98
2018-07-02T09:58:06.344Z,25.51
2018-07-02T09:59:06.582Z,25.19
2018-07-02T10:00:06.334Z,26.17
2018-07-02T10:01:06.351Z,26.36
2018-07-02T10:02:06.333Z,26.07
2018-07-02T10:03:06.334Z,26.90
2018-07-02T10:04:06.331Z,28.18
2018-07-02T10:05:06.333Z,26.73
2018-07-02T10:06:06.331Z,26.07
2018-07-02T10:07:06.331Z,25.58
2018-07-02T10:08:06.330Z,25.79
2018-07-02T10:09:06.345Z,24.65
2018-07-02T10:10:06.361Z,24.46
2018-07-02T10:11:06.327Z,24.39
2018-07-02T10:12:06.333Z,24.38
2018-07-02T10:13:06.334Z,24.28
2018-07-02T10:14:06.324Z,24.45
2018-07-02T10:15:06.335Z,24.94
2018-07-02T10:16:06.325Z,25.13
2018-07-02T10:17:06.334Z,24.65
2018-07-02T10:18:06.332Z,25.32
2018-07-02T10:19:06.330Z,25.13
2018-07-02T10:20:06.333Z,25.41
2018-07-02T10:21:06.337Z,25.81
2018-07-02T10:22:06.331Z,25.41
2018-07-02T10:23:06.334Z,25.90
2018-07-02T10:24:06.340Z,24.95
2018-07-02T10:25:06.335Z,24.66
2018-07-02T10:26:06.345Z,24.38
2018-07-02T10:27:06.339Z,23.71
2018-07-02T10:28:06.342Z,23.51
2018-07-02T10:29:06.375Z,24.57
2018-07-02T10:30:06.349Z,24.57
2018-07-02T10:31:06.390Z,24.26
2018-07-02T10:32:06.362Z,24.46
2018-07-02T10:33:06.356Z,24.45
2018-07-02T10:34:06.359Z,24.27
2018-07-02T10:35:06.372Z,23.41
2018-07-02T10:36:06.383Z,23.30
2018-07-02T10:37:06.375Z,23.01
2018-07-02T10:38:06.378Z,22.79
2018-07-02T10:39:06.382Z,23.83
2018-07-02T10:40:06.386Z,25.10
2018-07-02T10:41:06.713Z,24.24
2018-07-02T10:42:06.398Z,23.68
2018-07-02T10:43:06.399Z,23.01
2018-07-02T10:44:06.412Z,22.84
2018-07-02T10:45:06.407Z,22.17
2018-07-02T10:46:06.413Z,21.68
2018-07-02T10:47:06.476Z,21.57
2018-07-02T10:48:06.422Z,23.13
2018-07-02T10:49:06.427Z,22.36
2018-07-02T10:50:06.434Z,22.06
2018-07-02T10:51:06.440Z,22.45
2018-07-02T10:52:06.446Z,23.13
2018-07-02T10:53:06.457Z,22.64
2018-07-02T10:54:06.464Z,23.03
2018-07-02T10:55:06.476Z,22.17
2018-07-02T10:56:06.476Z,21.39
2018-07-02T10:57:06.480Z,21.39
2018-07-02T10:58:06.478Z,21.56
2018-07-02T10:59:06.491Z,22.41
2018-07-02T11:00:06.503Z,23.79
2018-07-02T11:01:06.507Z,22.83
2018-07-02T11:02:06.505Z,21.56
2018-07-02T11:03:06.510Z,23.29
2018-07-02T11:04:06.516Z,23.00
2018-07-02T11:05:06.526Z,22.91
2018-07-02T11:06:06.542Z,22.92
2018-07-02T11:07:06.537Z,22.35
2018-07-02T11:08:06.547Z,21.00
2018-07-02T11:09:06.546Z,20.10
2018-07-02T11:10:06.611Z,21.39
2018-07-02T11:11:06.562Z,21.39
2018-07-02T11:12:06.565Z,21.59
2018-07-02T11:13:06.570Z,21.60
2018-07-02T11:14:06.578Z,21.60
2018-07-02T11:15:06.590Z,21.69
2018-07-02T11:16:06.594Z,21.48
2018-07-02T11:17:06.611Z,21.88
2018-07-02T11:18:06.613Z,21.59
2018-07-02T11:19:06.628Z,21.70
2018-07-02T11:20:06.723Z,21.31
2018-07-02T11:21:06.623Z,20.53
2018-07-02T11:22:06.630Z,20.23
2018-07-02T11:23:06.639Z,20.82
2018-07-02T11:24:06.646Z,21.58
2018-07-02T11:25:06.656Z,21.69
2018-07-02T11:26:06.677Z,22.45
2018-07-02T11:27:06.679Z,22.63
2018-07-02T11:28:06.685Z,22.92
2018-07-02T11:29:06.691Z,23.41
2018-07-02T11:30:06.690Z,22.85
2018-07-02T11:31:06.699Z,23.41
2018-07-02T11:32:06.703Z,24.84
2018-07-02T11:33:06.717Z,24.76
2018-07-02T11:34:06.715Z,24.66
2018-07-02T11:35:06.723Z,25.42
2018-07-02T11:36:06.727Z,25.04
2018-07-02T11:37:06.735Z,24.66
2018-07-02T11:38:06.749Z,25.80
2018-07-02T11:39:06.757Z,26.26
2018-07-02T11:40:06.763Z,26.95
2018-07-02T11:41:06.759Z,26.28
2018-07-02T11:42:06.766Z,25.81
2018-07-02T11:43:06.779Z,25.62
2018-07-02T11:44:06.821Z,25.34
2018-07-02T11:45:06.790Z,24.87
2018-07-02T11:46:06.788Z,24.10
2018-07-02T11:47:06.792Z,23.58
2018-07-02T11:48:06.853Z,24.55
2018-07-02T11:49:06.806Z,24.35
2018-07-02T11:50:06.812Z,24.73
2018-07-02T11:51:06.813Z,25.69
2018-07-02T11:52:06.818Z,26.28
2018-07-02T11:53:06.817Z,26.36
2018-07-02T11:54:06.818Z,26.73
2018-07-02T11:55:06.823Z,27.12
2018-07-02T11:56:06.824Z,27.22
2018-07-02T11:57:06.824Z,27.40
2018-07-02T11:58:06.826Z,27.39
2018-07-02T11:59:06.839Z,28.26
2018-07-02T12:00:06.824Z,29.14
2018-07-02T12:01:06.843Z,29.14
2018-07-02T12:02:06.831Z,28.44
2018-07-02T12:03:06.831Z,29.61
2018-07-02T12:04:06.850Z,29.60
2018-07-02T12:05:06.820Z,29.01
2018-07-02T12:06:06.824Z,29.87
2018-07-02T12:07:06.825Z,30.35
2018-07-02T12:08:06.812Z,30.66
2018-07-02T12:09:06.808Z,30.29
2018-07-02T12:10:06.804Z,30.19
2018-07-02T12:11:06.802Z,29.60
2018-07-02T12:12:06.804Z,28.80
2018-07-02T12:13:06.811Z,29.38
2018-07-02T12:14:06.788Z,29.17
2018-07-02T12:15:06.788Z,29.08
2018-07-02T12:16:06.780Z,28.90
2018-07-02T12:17:06.774Z,29.00
2018-07-02T12:18:06.769Z,29.00
2018-07-02T12:19:06.769Z,28.63
2018-07-02T12:20:06.758Z,28.43
2018-07-02T12:21:06.752Z,28.53
2018-07-02T12:22:06.748Z,28.14
2018-07-02T12:23:06.749Z,27.57
2018-07-02T12:24:06.736Z,27.84
2018-07-02T12:25:06.731Z,27.36
2018-07-02T12:26:06.797Z,27.76
2018-07-02T12:27:06.719Z,27.37
2018-07-02T12:28:06.711Z,28.05
2018-07-02T12:29:06.704Z,28.43
2018-07-02T12:30:06.700Z,29.21
2018-07-02T12:31:06.709Z,29.48
2018-07-02T12:32:06.693Z,30.84
2018-07-02T12:33:06.678Z,30.55
2018-07-02T12:34:06.679Z,30.65
2018-07-02T12:35:06.668Z,30.45
2018-07-02T12:36:06.663Z,30.65
2018-07-02T12:37:06.655Z,30.27
2018-07-02T12:38:06.651Z,29.40
2018-07-02T12:39:06.640Z,29.30
2018-07-02T12:40:06.631Z,29.69
2018-07-02T12:41:06.648Z,29.80
2018-07-02T12:42:06.619Z,28.44
2018-07-02T12:43:06.610Z,29.40
2018-07-02T12:44:06.608Z,29.48
2018-07-02T12:45:06.597Z,29.28
2018-07-02T12:46:06.589Z,29.97
2018-07-02T12:47:06.592Z,30.34
2018-07-02T12:48:06.574Z,30.82
2018-07-02T12:49:06.566Z,30.26
2018-07-02T12:50:06.559Z,30.27
2018-07-02T12:51:06.552Z,29.69
2018-07-02T12:52:06.566Z,29.38
2018-07-02T12:53:06.537Z,29.77
2018-07-02T12:54:06.636Z,29.98
2018-07-02T12:55:06.522Z,29.60
2018-07-02T12:56:06.526Z,29.48
2018-07-02T12:57:06.506Z,29.69
2018-07-02T12:58:06.499Z,29.88
2018-07-02T12:59:06.490Z,29.79
2018-07-02T13:00:06.491Z,29.60
2018-07-02T13:01:06.474Z,28.34